createdAt,value
2018-10-12T00:00:11.880Z,53.65
2018-10-12T00:02:42.359Z,53.65
2018-10-12T00:05:12.111Z,53.68
2018-10-12T00:07:42.178Z,53.42
2018-10-12T00:10:11.746Z,53.53
2018-10-12T00:12:41.466Z,53.48
2018-10-12T00:15:10.853Z,53.89
2018-10-12T00:17:40.043Z,53.87
2018-10-12T00:20:09.654Z,53.70
2018-10-12T00:22:38.947Z,53.92
2018-10-12T00:25:08.267Z,54.17
2018-10-12T00:27:37.416Z,54.34
2018-10-12T00:30:06.609Z,54.18
2018-10-12T00:32:35.757Z,54.06
2018-10-12T00:35:04.914Z,54.24
2018-10-12T00:37:34.069Z,54.17
2018-10-12T00:40:03.192Z,54.03
2018-10-12T00:42:32.330Z,54.49
2018-10-12T00:45:01.554Z,54.50
2018-10-12T00:47:30.708Z,54.45
2018-10-12T00:49:59.824Z,54.57
2018-10-12T00:52:28.940Z,54.29
2018-10-12T00:54:58.241Z,54.54
2018-10-12T00:57:27.408Z,54.90
2018-10-12T00:59:56.550Z,55.09
2018-10-12T01:02:25.682Z,55.35
2018-10-12T01:04:54.847Z,55.35
2018-10-12T01:07:24.003Z,55.84
2018-10-12T01:09:53.169Z,55.62
2018-10-12T01:12:33.377Z,55.98
2018-10-12T01:15:02.865Z,56.02
2018-10-12T01:17:32.980Z,56.09
2018-10-12T01:20:02.394Z,56.15
2018-10-12T01:22:31.515Z,56.34
2018-10-12T01:25:02.430Z,56.54
2018-10-12T01:27:31.849Z,56.88
2018-10-12T01:30:01.027Z,57.20
2018-10-12T01:32:35.538Z,57.20
2018-10-12T01:35:04.662Z,57.27
2018-10-12T01:37:33.773Z,57.23
2018-10-12T01:40:02.889Z,57.05
2018-10-12T01:42:32.042Z,57.23
2018-10-12T01:45:01.212Z,57.37
2018-10-12T01:47:36.784Z,57.57
2018-10-12T01:50:05.909Z,57.78
2018-10-12T01:52:35.073Z,57.76
2018-10-12T01:55:04.176Z,58.00
2018-10-12T01:57:33.306Z,57.77
2018-10-12T02:00:02.426Z,57.92
2018-10-12T02:02:31.547Z,57.77
2018-10-12T02:05:00.763Z,57.80
2018-10-12T02:07:29.854Z,57.49
2018-10-12T02:09:59.008Z,57.76
2018-10-12T02:12:28.106Z,57.97
2018-10-12T02:14:57.285Z,58.11
2018-10-12T02:17:26.452Z,58.52
2018-10-12T02:19:55.556Z,58.34
2018-10-12T02:22:24.671Z,58.25
2018-10-12T02:24:53.809Z,58.33
2018-10-12T02:27:22.915Z,58.68
2018-10-12T02:29:52.075Z,58.73
2018-10-12T02:32:21.192Z,58.62
2018-10-12T02:34:50.310Z,58.51
2018-10-12T02:37:19.435Z,58.60
2018-10-12T02:39:48.552Z,58.85
2018-10-12T02:42:17.713Z,58.85
2018-10-12T02:44:46.859Z,58.68
2018-10-12T02:47:15.999Z,59.10
2018-10-12T02:49:45.100Z,58.90
2018-10-12T02:52:14.243Z,59.15
2018-10-12T02:54:43.379Z,59.25
2018-10-12T02:57:12.543Z,59.35
2018-10-12T02:59:41.687Z,59.37
2018-10-12T03:02:10.783Z,59.20
2018-10-12T03:04:46.321Z,58.95
2018-10-12T03:07:15.444Z,59.07
2018-10-12T03:09:44.600Z,59.41
2018-10-12T03:12:13.719Z,59.19
2018-10-12T03:14:42.870Z,59.69
2018-10-12T03:17:11.983Z,59.32
2018-10-12T03:19:41.108Z,59.41
2018-10-12T03:22:10.216Z,59.54
2018-10-12T03:24:39.419Z,59.58
2018-10-12T03:27:08.531Z,59.19
2018-10-12T03:29:37.624Z,59.47
2018-10-12T03:32:06.767Z,59.84
2018-10-12T03:34:35.998Z,59.69
2018-10-12T03:37:05.270Z,59.86
2018-10-12T03:39:35.133Z,59.86
2018-10-12T03:42:04.246Z,60.71
2018-10-12T03:44:33.398Z,60.52
2018-10-12T03:47:02.511Z,60.61
2018-10-12T03:49:31.647Z,60.76
2018-10-12T03:52:01.936Z,60.53
2018-10-12T03:54:30.953Z,60.98
2018-10-12T03:57:00.078Z,61.00
2018-10-12T03:59:29.218Z,61.20
2018-10-12T04:01:58.383Z,60.93
2018-10-12T04:04:27.512Z,61.06
2018-10-12T04:06:56.633Z,61.33
2018-10-12T04:09:25.756Z,61.38
2018-10-12T04:11:54.868Z,60.97
2018-10-12T04:14:23.987Z,61.10
2018-10-12T04:16:53.079Z,61.42
2018-10-12T04:19:22.216Z,61.36
2018-10-12T04:21:51.331Z,61.65
2018-10-12T04:24:20.493Z,61.71
2018-10-12T04:26:49.640Z,61.59
2018-10-12T04:29:18.788Z,61.35
2018-10-12T04:31:48.040Z,61.76
2018-10-12T04:34:17.151Z,61.70
2018-10-12T04:36:46.251Z,61.55
2018-10-12T04:39:40.966Z,61.50
2018-10-12T04:42:10.094Z,61.71
2018-10-12T04:44:39.202Z,62.04
2018-10-12T04:47:08.626Z,61.91
2018-10-12T04:49:37.749Z,61.89
2018-10-12T04:52:07.236Z,62.00
2018-10-12T04:54:36.333Z,61.87
2018-10-12T04:57:05.446Z,62.38
2018-10-12T04:59:34.571Z,61.98
2018-10-12T05:02:03.750Z,62.44
2018-10-12T05:04:32.888Z,63.28
2018-10-12T05:07:02.060Z,63.26
2018-10-12T05:09:31.181Z,63.00
2018-10-12T05:12:00.352Z,63.15
2018-10-12T05:15:59.104Z,63.23
2018-10-12T05:18:32.325Z,63.57
2018-10-12T05:21:02.696Z,63.53
2018-10-12T05:23:31.872Z,63.56
2018-10-12T05:26:01.506Z,64.22
2018-10-12T05:28:33.012Z,64.68
2018-10-12T05:31:02.390Z,64.29
2018-10-12T05:33:31.544Z,64.22
2018-10-12T05:36:00.728Z,63.86
2018-10-12T05:38:30.994Z,64.01
2018-10-12T05:41:00.404Z,64.22
2018-10-12T05:43:29.889Z,64.03
2018-10-12T05:45:58.873Z,64.45
2018-10-12T05:49:47.819Z,64.05
2018-10-12T05:52:16.956Z,64.30
2018-10-12T05:54:46.102Z,63.93
2018-10-12T05:57:15.251Z,63.71
2018-10-12T05:59:44.981Z,63.36
2018-10-12T06:02:14.152Z,63.39
2018-10-12T06:04:43.263Z,63.20
2018-10-12T06:07:12.407Z,63.16
2018-10-12T06:09:41.594Z,62.92
2018-10-12T06:12:10.710Z,62.68
2018-10-12T06:14:39.822Z,62.32
2018-10-12T06:17:08.967Z,62.13
2018-10-12T06:19:38.127Z,61.70
2018-10-12T06:22:07.830Z,61.30
2018-10-12T06:24:36.975Z,61.06
2018-10-12T06:27:06.112Z,60.50
2018-10-12T06:29:35.268Z,60.21
2018-10-12T06:32:04.391Z,60.25
2018-10-12T06:34:33.993Z,59.57
2018-10-12T06:37:03.146Z,59.06
2018-10-12T06:39:32.281Z,58.75
2018-10-12T06:42:01.401Z,58.42
2018-10-12T06:44:30.570Z,58.24
2018-10-12T06:46:59.699Z,57.96
2018-10-12T06:49:28.820Z,57.83
2018-10-12T06:51:57.939Z,57.93
2018-10-12T06:54:27.059Z,58.33
2018-10-12T06:56:56.216Z,58.38
2018-10-12T06:59:25.459Z,58.21
2018-10-12T07:01:54.581Z,58.72
2018-10-12T07:04:23.736Z,57.91
2018-10-12T07:06:52.847Z,57.03
2018-10-12T07:09:22.009Z,56.93
2018-10-12T07:11:51.118Z,56.73
2018-10-12T07:14:20.252Z,56.34
2018-10-12T07:16:49.372Z,55.80
2018-10-12T07:19:18.554Z,55.53
2018-10-12T07:21:47.651Z,55.28
2018-10-12T07:24:16.787Z,54.72
2018-10-12T07:26:46.205Z,54.54
2018-10-12T07:29:15.095Z,54.02
2018-10-12T07:31:44.229Z,53.90
2018-10-12T07:34:13.383Z,53.49
2018-10-12T07:36:42.507Z,52.86
2018-10-12T07:39:11.624Z,52.71
2018-10-12T07:41:41.016Z,52.52
2018-10-12T07:44:09.917Z,52.59
2018-10-12T07:46:39.024Z,52.34
2018-10-12T07:49:08.155Z,52.04
2018-10-12T07:51:37.269Z,51.65
2018-10-12T07:54:06.568Z,50.72
2018-10-12T07:56:35.723Z,50.77
2018-10-12T07:59:04.892Z,50.38
2018-10-12T08:01:34.073Z,50.50
2018-10-12T08:04:03.197Z,49.62
2018-10-12T08:06:32.360Z,49.48
2018-10-12T08:09:01.505Z,49.11
2018-10-12T08:11:30.630Z,48.78
2018-10-12T08:13:59.939Z,48.58
2018-10-12T08:16:28.927Z,48.08
2018-10-12T08:18:58.056Z,48.11
2018-10-12T08:21:27.275Z,47.65
2018-10-12T08:23:56.416Z,47.19
2018-10-12T08:26:25.523Z,47.00
2018-10-12T08:28:54.663Z,47.21
2018-10-12T08:31:23.854Z,46.68
2018-10-12T08:33:52.948Z,46.39
2018-10-12T08:36:22.089Z,45.85
2018-10-12T08:38:51.238Z,45.70
2018-10-12T08:41:20.377Z,45.41
2018-10-12T08:43:49.517Z,44.92
2018-10-12T08:46:18.646Z,44.35
2018-10-12T08:48:47.795Z,44.53
2018-10-12T08:51:16.920Z,44.80
2018-10-12T08:53:46.065Z,44.31
2018-10-12T08:56:15.171Z,43.84
2018-10-12T08:58:44.300Z,43.60
2018-10-12T09:01:13.429Z,42.88
2018-10-12T09:03:42.576Z,41.62
2018-10-12T09:06:11.678Z,37.16
2018-10-12T09:08:40.837Z,32.32
2018-10-12T09:11:09.965Z,29.58
2018-10-12T09:13:39.124Z,27.72
2018-10-12T09:16:08.428Z,26.91
2018-10-12T09:18:37.568Z,25.53
2018-10-12T09:21:07.005Z,25.52
2018-10-12T09:23:36.124Z,24.16
2018-10-12T09:26:05.239Z,24.78
2018-10-12T09:28:34.364Z,23.99
2018-10-12T09:31:03.556Z,24.52
2018-10-12T09:33:32.684Z,24.47
2018-10-12T09:36:01.829Z,24.91
2018-10-12T09:38:30.938Z,23.97
2018-10-12T09:41:00.100Z,23.69
2018-10-12T09:43:29.222Z,24.27
2018-10-12T09:45:58.344Z,25.35
2018-10-12T09:48:27.487Z,24.39
2018-10-12T09:50:56.600Z,25.70
2018-10-12T09:53:25.705Z,25.05
2018-10-12T09:55:54.912Z,25.96
2018-10-12T09:58:23.992Z,25.16
2018-10-12T10:00:58.434Z,24.15
2018-10-12T10:03:33.011Z,25.79
2018-10-12T10:06:02.199Z,26.21
2018-10-12T10:08:31.494Z,25.26
2018-10-12T10:11:00.491Z,25.13
2018-10-12T10:13:29.605Z,25.97
2018-10-12T10:15:58.715Z,26.15
2018-10-12T10:18:27.872Z,26.29
2018-10-12T10:20:56.990Z,27.03
2018-10-12T10:23:26.120Z,28.56
2018-10-12T10:25:55.244Z,30.12
2018-10-12T10:28:24.392Z,31.07
2018-10-12T10:30:53.533Z,31.60
2018-10-12T10:33:22.667Z,32.33
2018-10-12T10:35:51.800Z,32.34
2018-10-12T10:38:20.929Z,33.17
2018-10-12T10:40:50.034Z,33.35
2018-10-12T10:43:19.168Z,33.64
2018-10-12T10:45:48.295Z,34.46
2018-10-12T10:48:17.579Z,34.30
2018-10-12T10:50:46.763Z,33.89
2018-10-12T10:53:15.915Z,33.50
2018-10-12T10:55:45.051Z,32.60
2018-10-12T10:58:14.191Z,31.16
2018-10-12T11:00:43.371Z,30.66
2018-10-12T11:03:12.604Z,30.69
2018-10-12T11:05:41.742Z,30.12
2018-10-12T11:08:10.884Z,30.00
2018-10-12T11:10:40.030Z,31.11
2018-10-12T11:13:09.195Z,31.40
2018-10-12T11:15:38.303Z,32.34
2018-10-12T11:18:07.452Z,33.00
2018-10-12T11:20:36.606Z,32.86
2018-10-12T11:23:05.721Z,32.91
2018-10-12T11:25:34.851Z,32.98
2018-10-12T11:28:03.962Z,32.46
2018-10-12T11:30:33.093Z,32.13
2018-10-12T11:33:02.382Z,31.35
2018-10-12T11:35:31.577Z,31.09
2018-10-12T11:38:00.671Z,30.21
2018-10-12T11:40:29.786Z,30.45
2018-10-12T11:43:19.994Z,31.35
2018-10-12T11:45:49.330Z,31.19
2018-10-12T11:48:19.004Z,31.70
2018-10-12T11:50:48.132Z,31.45
2018-10-12T11:53:17.277Z,31.61
2018-10-12T11:55:46.396Z,31.13
2018-10-12T11:58:19.415Z,31.32
2018-10-12T12:00:48.610Z,30.69
2018-10-12T12:03:17.755Z,30.65
2018-10-12T12:05:47.038Z,31.03
2018-10-12T12:08:16.221Z,30.56
2018-10-12T12:10:45.375Z,30.56
2018-10-12T12:13:14.502Z,30.54
2018-10-12T12:15:43.652Z,30.53
2018-10-12T12:18:12.775Z,30.21
2018-10-12T12:20:41.923Z,30.05
2018-10-12T12:23:11.054Z,30.12
2018-10-12T12:25:40.183Z,30.23
2018-10-12T12:28:09.341Z,30.45
2018-10-12T12:30:38.442Z,30.45
2018-10-12T12:33:07.576Z,29.92
2018-10-12T12:35:36.969Z,29.51
2018-10-12T12:38:05.823Z,29.73
2018-10-12T12:40:34.943Z,29.66
2018-10-12T12:43:04.090Z,29.99
2018-10-12T12:45:33.217Z,29.72
2018-10-12T12:48:02.486Z,29.86
2018-10-12T12:50:31.483Z,29.42
2018-10-12T12:53:00.618Z,30.10
2018-10-12T12:55:29.729Z,29.34
2018-10-12T12:57:59.027Z,29.55
2018-10-12T13:00:28.356Z,29.06
2018-10-12T13:02:57.420Z,29.14
2018-10-12T13:05:26.524Z,29.20
2018-10-12T13:07:55.652Z,29.67
2018-10-12T13:10:24.839Z,28.86
2018-10-12T13:12:53.941Z,29.17
2018-10-12T13:15:23.046Z,28.84
2018-10-12T13:17:52.182Z,29.13
2018-10-12T13:20:21.345Z,29.41
2018-10-12T13:22:50.623Z,29.46
2018-10-12T13:25:19.838Z,29.77
2018-10-12T13:27:48.934Z,30.09
2018-10-12T13:30:18.199Z,29.90
2018-10-12T13:32:47.409Z,30.66
2018-10-12T13:35:16.514Z,29.95
2018-10-12T13:37:45.670Z,30.08
2018-10-12T13:40:15.220Z,30.44
2018-10-12T13:42:44.367Z,30.58
2018-10-12T13:45:13.530Z,30.69
2018-10-12T13:47:42.619Z,29.98
2018-10-12T13:50:11.719Z,30.54
2018-10-12T13:52:40.847Z,30.25
2018-10-12T13:55:09.969Z,30.75
2018-10-12T13:57:39.082Z,29.90
2018-10-12T14:00:08.235Z,30.58
2018-10-12T14:02:37.327Z,30.81
2018-10-12T14:05:06.490Z,30.84
2018-10-12T14:07:35.624Z,30.98
2018-10-12T14:10:05.388Z,30.60
2018-10-12T14:12:34.497Z,31.31
2018-10-12T14:15:03.640Z,30.78
2018-10-12T14:17:32.761Z,31.00
2018-10-12T14:20:01.908Z,31.11
2018-10-12T14:22:31.024Z,31.25
2018-10-12T14:25:00.144Z,31.53
2018-10-12T14:27:29.282Z,31.58
2018-10-12T14:29:58.448Z,31.71
2018-10-12T14:32:27.579Z,31.86
2018-10-12T14:34:56.691Z,32.26
2018-10-12T14:37:25.839Z,32.14
2018-10-12T14:39:54.951Z,32.05
2018-10-12T14:42:24.129Z,32.14
2018-10-12T14:44:53.506Z,32.65
2018-10-12T14:47:22.876Z,32.56
2018-10-12T14:49:53.039Z,32.52
2018-10-12T14:52:22.217Z,33.15
2018-10-12T14:54:51.308Z,32.91
2018-10-12T14:57:21.203Z,32.87
2018-10-12T14:59:51.003Z,33.58
2018-10-12T15:02:20.599Z,33.48
2018-10-12T15:04:49.711Z,33.57
2018-10-12T15:07:18.808Z,34.00
2018-10-12T15:09:47.956Z,34.29
2018-10-12T15:12:17.072Z,34.47
2018-10-12T15:15:04.061Z,34.55
2018-10-12T15:17:33.132Z,34.74
2018-10-12T15:20:02.243Z,34.63
2018-10-12T15:22:31.354Z,35.17
2018-10-12T15:25:00.551Z,35.04
2018-10-12T15:27:29.667Z,34.95
2018-10-12T15:29:58.786Z,35.46
2018-10-12T15:32:28.004Z,35.70
2018-10-12T15:34:57.126Z,36.13
2018-10-12T15:37:26.327Z,36.32
2018-10-12T15:39:55.398Z,36.31
2018-10-12T15:42:24.511Z,36.86
2018-10-12T15:44:53.652Z,36.77
2018-10-12T15:47:23.382Z,36.84
2018-10-12T15:49:53.016Z,36.89
2018-10-12T15:52:22.247Z,37.33
2018-10-12T15:54:51.401Z,37.88
2018-10-12T15:57:24.708Z,38.10
2018-10-12T15:59:53.878Z,38.61
2018-10-12T16:02:23.037Z,38.55
2018-10-12T16:04:52.155Z,39.35
2018-10-12T16:07:21.273Z,39.41
2018-10-12T16:09:51.692Z,39.75
2018-10-12T16:12:21.671Z,40.07
2018-10-12T16:14:50.855Z,40.00
2018-10-12T16:17:19.942Z,40.18
2018-10-12T16:19:49.071Z,40.49
2018-10-12T16:22:19.879Z,40.67
2018-10-12T16:25:06.520Z,41.15
2018-10-12T16:27:35.628Z,41.48
2018-10-12T16:30:04.766Z,41.87
2018-10-12T16:32:33.930Z,41.63
2018-10-12T16:35:03.044Z,42.02
2018-10-12T16:37:32.183Z,42.20
2018-10-12T16:40:01.404Z,42.79
2018-10-12T16:42:30.693Z,43.19
2018-10-12T16:44:59.849Z,43.12
2018-10-12T16:47:29.023Z,43.25
2018-10-12T16:49:58.147Z,43.55
2018-10-12T16:52:27.263Z,43.90
2018-10-12T16:54:56.385Z,44.14
2018-10-12T16:57:26.509Z,44.21
2018-10-12T16:59:55.857Z,45.02
2018-10-12T17:02:25.059Z,45.18
2018-10-12T17:04:54.204Z,45.94
2018-10-12T17:07:23.524Z,45.01
2018-10-12T17:09:52.676Z,45.81
2018-10-12T17:12:21.847Z,45.25
2018-10-12T17:14:51.082Z,45.20
2018-10-12T17:17:20.204Z,45.72
2018-10-12T17:19:49.397Z,45.57
2018-10-12T17:22:18.608Z,45.37
2018-10-12T17:24:48.603Z,45.79
2018-10-12T17:27:17.701Z,46.00
2018-10-12T17:29:46.828Z,46.45
2018-10-12T17:32:15.948Z,46.44
2018-10-12T17:34:45.057Z,46.26
2018-10-12T17:37:14.254Z,46.71
2018-10-12T17:39:43.380Z,46.81
2018-10-12T17:42:15.829Z,46.65
2018-10-12T17:44:45.167Z,46.93
2018-10-12T17:47:15.031Z,47.20
2018-10-12T17:49:44.596Z,47.35
2018-10-12T17:52:13.714Z,47.53
2018-10-12T17:54:42.856Z,47.45
2018-10-12T17:57:11.993Z,47.70
2018-10-12T17:59:41.112Z,47.83
2018-10-12T18:02:10.238Z,47.72
2018-10-12T18:04:39.379Z,48.16
2018-10-12T18:07:08.494Z,48.01
2018-10-12T18:09:37.595Z,48.13
2018-10-12T18:12:06.762Z,48.06
2018-10-12T18:14:35.879Z,47.92
2018-10-12T18:17:05.015Z,48.39
2018-10-12T18:19:34.139Z,48.15
2018-10-12T18:22:03.300Z,48.45
2018-10-12T18:24:32.396Z,48.42
2018-10-12T18:27:01.725Z,48.69
2018-10-12T18:29:30.872Z,48.74
2018-10-12T18:31:59.989Z,49.03
2018-10-12T18:34:29.122Z,48.68
2018-10-12T18:36:58.300Z,48.97
2018-10-12T18:39:27.352Z,49.23
2018-10-12T18:41:56.478Z,48.77
2018-10-12T18:44:25.672Z,49.23
2018-10-12T18:46:55.203Z,49.86
2018-10-12T18:49:24.323Z,49.96
2018-10-12T18:51:53.444Z,50.21
2018-10-12T18:54:22.582Z,49.78
2018-10-12T18:56:51.723Z,49.98
2018-10-12T18:59:20.883Z,50.32
2018-10-12T19:01:49.979Z,50.51
2018-10-12T19:04:19.170Z,50.55
2018-10-12T19:06:48.335Z,50.74
2018-10-12T19:09:17.411Z,50.56
2018-10-12T19:11:46.512Z,50.78
2018-10-12T19:14:15.767Z,51.09
2018-10-12T19:16:44.872Z,51.74
2018-10-12T19:19:13.983Z,51.56
2018-10-12T19:21:43.132Z,51.52
2018-10-12T19:24:12.302Z,51.80
2018-10-12T19:26:41.443Z,52.00
2018-10-12T19:29:10.586Z,52.10
2018-10-12T19:31:39.768Z,52.23
2018-10-12T19:34:08.822Z,52.30
2018-10-12T19:36:37.981Z,52.25
2018-10-12T19:39:08.567Z,52.36
2018-10-12T19:41:37.688Z,52.51
2018-10-12T19:44:07.516Z,53.04
2018-10-12T19:46:36.628Z,53.14
2018-10-12T19:49:05.920Z,53.06
2018-10-12T19:51:35.052Z,53.14
2018-10-12T19:54:04.171Z,53.46
2018-10-12T19:56:33.316Z,53.34
2018-10-12T19:59:02.514Z,53.32
2018-10-12T20:01:31.606Z,53.40
2018-10-12T20:04:00.767Z,53.99
2018-10-12T20:06:29.915Z,54.09
2018-10-12T20:08:59.027Z,54.08
2018-10-12T20:11:28.185Z,54.34
2018-10-12T20:13:57.308Z,54.47
2018-10-12T20:16:26.435Z,54.54
2018-10-12T20:18:55.568Z,54.57
2018-10-12T20:21:24.693Z,54.79
2018-10-12T20:23:53.896Z,55.05
2018-10-12T20:26:22.969Z,55.16
2018-10-12T20:28:52.102Z,55.14
2018-10-12T20:31:21.249Z,55.40
2018-10-12T20:33:50.354Z,55.57
2018-10-12T20:36:19.620Z,55.50
2018-10-12T20:38:48.739Z,55.75
2018-10-12T20:41:17.869Z,55.90
2018-10-12T20:43:47.095Z,55.81
2018-10-12T20:46:16.272Z,56.25
2018-10-12T20:48:45.387Z,55.94
2018-10-12T20:51:14.505Z,56.35
2018-10-12T20:53:43.632Z,56.15
2018-10-12T20:56:12.818Z,56.48
2018-10-12T20:58:41.955Z,56.73
2018-10-12T21:01:11.094Z,57.01
2018-10-12T21:03:40.209Z,56.88
2018-10-12T21:06:09.497Z,57.12
2018-10-12T21:08:41.476Z,57.16
2018-10-12T21:11:10.644Z,57.16
2018-10-12T21:13:39.754Z,57.25
2018-10-12T21:16:09.228Z,57.27
2018-10-12T21:18:38.542Z,57.86
2018-10-12T21:21:07.670Z,58.08
2018-10-12T21:23:36.812Z,58.36
2018-10-12T21:26:05.971Z,58.35
2018-10-12T21:28:36.723Z,58.43
2018-10-12T21:31:05.896Z,58.49
2018-10-12T21:33:35.031Z,58.21
2018-10-12T21:36:04.135Z,58.54
2018-10-12T21:38:33.322Z,58.40
2018-10-12T21:41:02.438Z,58.64
2018-10-12T21:43:31.579Z,59.02
2018-10-12T21:46:00.741Z,58.43
2018-10-12T21:48:29.935Z,59.01
2018-10-12T21:50:59.283Z,59.10
2018-10-12T21:53:28.397Z,59.15
2018-10-12T21:55:57.532Z,59.02
2018-10-12T21:58:26.638Z,59.09
2018-10-12T22:01:01.021Z,59.13
2018-10-12T22:03:30.121Z,59.58
2018-10-12T22:05:59.246Z,59.60
2018-10-12T22:08:33.775Z,59.51
2018-10-12T22:11:03.075Z,59.58
2018-10-12T22:13:32.208Z,59.38
2018-10-12T22:16:01.444Z,59.47
2018-10-12T22:18:30.610Z,59.39
2018-10-12T22:20:59.719Z,59.50
2018-10-12T22:23:28.882Z,59.37
2018-10-12T22:25:58.085Z,59.11
2018-10-12T22:28:27.113Z,59.35
2018-10-12T22:30:56.248Z,59.75
2018-10-12T22:33:25.466Z,59.47
2018-10-12T22:35:54.736Z,59.30
2018-10-12T22:38:23.856Z,59.67
2018-10-12T22:40:53.027Z,59.67
2018-10-12T22:43:22.147Z,59.79
2018-10-12T22:45:51.267Z,59.58
2018-10-12T22:48:20.415Z,60.11
2018-10-12T22:50:49.565Z,60.03
2018-10-12T22:53:18.683Z,59.97
2018-10-12T22:55:47.820Z,59.83
2018-10-12T22:58:16.948Z,59.77
2018-10-12T23:00:46.065Z,60.03
2018-10-12T23:03:15.261Z,59.76
2018-10-12T23:05:44.366Z,59.67
2018-10-12T23:08:13.499Z,60.13
2018-10-12T23:10:42.631Z,60.29
2018-10-12T23:13:11.991Z,60.00
2018-10-12T23:15:41.272Z,59.97
2018-10-12T23:18:10.415Z,60.22
2018-10-12T23:20:39.532Z,60.44
2018-10-12T23:23:08.693Z,60.22
2018-10-12T23:25:37.831Z,60.40
2018-10-12T23:28:07.186Z,60.80
2018-10-12T23:30:36.343Z,60.44
2018-10-12T23:33:22.572Z,60.62
2018-10-12T23:35:51.692Z,61.26
2018-10-12T23:38:20.829Z,61.97
2018-10-12T23:40:49.986Z,61.53
2018-10-12T23:43:19.111Z,61.59
2018-10-12T23:45:48.267Z,61.48
2018-10-12T23:48:17.475Z,61.29
2018-10-12T23:50:46.599Z,61.78
2018-10-12T23:53:15.741Z,61.82
2018-10-12T23:55:44.883Z,62.02
2018-10-12T23:58:14.055Z,61.99
